createdAt,value
2023-05-01T00:00:28.508Z,762.51
2023-05-01T00:01:28.476Z,757.74
2023-05-01T00:02:28.582Z,761.23
2023-05-01T00:03:28.625Z,766.96
2023-05-01T00:04:28.577Z,768.25
2023-05-01T00:05:28.456Z,771.22
2023-05-01T00:06:28.447Z,765.35
2023-05-01T00:07:28.418Z,760.67
2023-05-01T00:08:28.401Z,755.17
2023-05-01T00:09:28.393Z,760.72
2023-05-01T00:10:28.375Z,756.84
2023-05-01T00:11:28.358Z,760.73
2023-05-01T00:12:28.358Z,762.58
2023-05-01T00:13:28.368Z,755.37
2023-05-01T00:14:28.365Z,746.26
2023-05-01T00:15:28.313Z,741.48
2023-05-01T00:16:28.381Z,743.06
2023-05-01T00:17:28.357Z,745.91
2023-05-01T00:18:28.338Z,741.96
2023-05-01T00:19:28.269Z,738.73
2023-05-01T00:20:28.272Z,733.26
2023-05-01T00:21:28.286Z,733.18
2023-05-01T00:22:28.300Z,733.44
2023-05-01T00:23:28.235Z,741.80
2023-05-01T00:24:28.229Z,740.84
2023-05-01T00:25:28.205Z,739.32
2023-05-01T00:26:28.211Z,741.18
2023-05-01T00:27:28.183Z,737.42
2023-05-01T00:28:28.175Z,742.18
2023-05-01T00:29:28.162Z,742.12
2023-05-01T00:30:28.159Z,744.29
2023-05-01T00:31:28.409Z,748.31
2023-05-01T00:32:28.227Z,749.45
2023-05-01T00:33:28.144Z,747.94
2023-05-01T00:34:28.142Z,749.19
2023-05-01T00:35:28.104Z,748.10
2023-05-01T00:36:28.102Z,751.86
2023-05-01T00:37:28.074Z,750.69
2023-05-01T00:38:28.079Z,744.79
2023-05-01T00:39:28.067Z,748.58
2023-05-01T00:40:28.096Z,746.63
2023-05-01T00:41:28.050Z,748.64
2023-05-01T00:42:35.045Z,747.59
2023-05-01T00:43:28.013Z,754.81
2023-05-01T00:44:28.011Z,755.72
2023-05-01T00:45:28.002Z,760.35
2023-05-01T00:46:28.013Z,762.08
2023-05-01T00:47:27.979Z,767.38
2023-05-01T00:48:27.959Z,774.54
2023-05-01T00:49:27.952Z,773.91
2023-05-01T00:50:27.956Z,773.96
2023-05-01T00:51:27.923Z,777.15
2023-05-01T00:52:27.928Z,775.17
2023-05-01T00:53:27.927Z,765.66
2023-05-01T00:54:27.902Z,769.30
2023-05-01T00:55:27.881Z,766.06
2023-05-01T00:56:27.872Z,770.71
2023-05-01T00:57:27.871Z,777.12
2023-05-01T00:58:27.890Z,785.31
2023-05-01T00:59:27.834Z,791.79
2023-05-01T01:00:27.854Z,784.41
2023-05-01T01:01:27.900Z,782.69
2023-05-01T01:02:27.835Z,780.77
2023-05-01T01:03:27.790Z,779.94
2023-05-01T01:04:27.818Z,779.99
2023-05-01T01:05:27.775Z,784.34
2023-05-01T01:06:27.837Z,779.45
2023-05-01T01:07:27.782Z,785.32
2023-05-01T01:08:27.740Z,785.40
2023-05-01T01:09:27.740Z,784.94
2023-05-01T01:10:27.714Z,784.16
2023-05-01T01:11:27.702Z,786.26
2023-05-01T01:12:27.698Z,784.90
2023-05-01T01:13:27.695Z,778.42
2023-05-01T01:14:27.673Z,784.87
2023-05-01T01:15:27.655Z,781.85
2023-05-01T01:16:27.713Z,788.45
2023-05-01T01:17:27.681Z,788.55
2023-05-01T01:18:27.629Z,781.66
2023-05-01T01:19:27.629Z,789.82
2023-05-01T01:20:27.607Z,786.73
2023-05-01T01:21:27.592Z,786.58
2023-05-01T01:22:27.612Z,784.93
2023-05-01T01:23:27.565Z,786.72
2023-05-01T01:24:27.565Z,781.06
2023-05-01T01:25:27.542Z,781.15
2023-05-01T01:26:27.550Z,784.37
2023-05-01T01:27:27.519Z,787.71
2023-05-01T01:28:27.508Z,785.01
2023-05-01T01:29:27.499Z,784.79
2023-05-01T01:30:27.506Z,785.60
2023-05-01T01:31:27.528Z,784.49
2023-05-01T01:32:27.527Z,775.32
2023-05-01T01:33:27.458Z,766.47
2023-05-01T01:34:27.450Z,764.26
2023-05-01T01:35:27.429Z,773.46
2023-05-01T01:36:27.441Z,770.49
2023-05-01T01:37:27.417Z,773.67
2023-05-01T01:38:27.421Z,776.11
2023-05-01T01:39:27.419Z,773.23
2023-05-01T01:40:27.416Z,777.41
2023-05-01T01:41:27.366Z,767.45
2023-05-01T01:42:27.366Z,759.78
2023-05-01T01:43:27.366Z,761.32
2023-05-01T01:44:27.339Z,766.43
2023-05-01T01:45:27.329Z,773.99
2023-05-01T01:46:27.353Z,771.95
2023-05-01T01:47:27.359Z,765.81
2023-05-01T01:48:27.300Z,773.34
2023-05-01T01:49:27.287Z,773.77
2023-05-01T01:50:27.269Z,779.14
2023-05-01T01:51:27.271Z,778.14
2023-05-01T01:52:27.273Z,783.75
2023-05-01T01:53:27.238Z,785.15
2023-05-01T01:54:27.252Z,781.66
2023-05-01T01:55:27.217Z,785.20
2023-05-01T01:56:27.216Z,786.12
2023-05-01T01:57:27.191Z,783.82
2023-05-01T01:58:27.182Z,781.47
2023-05-01T01:59:27.169Z,779.36
2023-05-01T02:00:27.174Z,768.50
2023-05-01T02:01:27.185Z,769.33
2023-05-01T02:02:27.265Z,761.28
2023-05-01T02:03:27.216Z,774.93
2023-05-01T02:04:27.115Z,781.50
2023-05-01T02:05:27.116Z,781.46
2023-05-01T02:06:27.254Z,780.49
2023-05-01T02:07:27.081Z,777.04
2023-05-01T02:08:27.074Z,773.65
2023-05-01T02:09:27.072Z,764.31
2023-05-01T02:10:27.218Z,757.61
2023-05-01T02:11:27.044Z,758.27
2023-05-01T02:12:27.028Z,761.43
2023-05-01T02:13:27.018Z,774.46
2023-05-01T02:14:27.023Z,766.40
2023-05-01T02:15:27.018Z,767.20
2023-05-01T02:16:27.019Z,770.21
2023-05-01T02:17:27.011Z,769.33
2023-05-01T02:18:26.966Z,777.04
2023-05-01T02:19:26.955Z,773.30
2023-05-01T02:20:26.957Z,777.51
2023-05-01T02:21:26.939Z,773.80
2023-05-01T02:22:26.922Z,769.57
2023-05-01T02:23:26.924Z,768.94
2023-05-01T02:24:26.904Z,777.20
2023-05-01T02:25:29.489Z,769.36
2023-05-01T02:26:26.901Z,778.06
2023-05-01T02:27:26.865Z,765.23
2023-05-01T02:28:26.855Z,762.31
2023-05-01T02:29:26.853Z,760.87
2023-05-01T02:30:26.844Z,754.22
2023-05-01T02:31:26.873Z,755.73
2023-05-01T02:32:26.849Z,763.03
2023-05-01T02:33:26.810Z,760.24
2023-05-01T02:34:26.798Z,760.37
2023-05-01T02:35:26.785Z,765.53
2023-05-01T02:36:26.774Z,765.02
2023-05-01T02:37:26.765Z,764.49
2023-05-01T02:38:26.795Z,767.85
2023-05-01T02:39:26.744Z,760.68
2023-05-01T02:40:26.742Z,770.05
2023-05-01T02:41:26.711Z,764.05
2023-05-01T02:42:26.740Z,759.67
2023-05-01T02:43:34.207Z,743.84
2023-05-01T02:44:26.678Z,746.06
2023-05-01T02:45:26.704Z,757.44
2023-05-01T02:46:26.766Z,764.05
2023-05-01T02:47:26.740Z,774.27
2023-05-01T02:48:26.634Z,775.66
2023-05-01T02:49:26.631Z,781.28
2023-05-01T02:50:26.618Z,788.30
2023-05-01T02:51:26.619Z,786.82
2023-05-01T02:52:26.611Z,782.94
2023-05-01T02:53:26.575Z,780.66
2023-05-01T02:54:26.583Z,773.90
2023-05-01T02:55:26.566Z,778.01
2023-05-01T02:56:26.545Z,773.98
2023-05-01T02:57:26.545Z,774.30
2023-05-01T02:58:26.546Z,768.14
2023-05-01T02:59:26.511Z,768.59
2023-05-01T03:00:26.527Z,762.54
2023-05-01T03:01:26.530Z,768.76
2023-05-01T03:02:26.484Z,766.92
2023-05-01T03:03:26.476Z,764.41
2023-05-01T03:04:26.519Z,771.10
2023-05-01T03:05:26.447Z,774.11
2023-05-01T03:06:26.522Z,766.88
2023-05-01T03:07:26.424Z,771.61
2023-05-01T03:08:26.435Z,769.15
2023-05-01T03:09:26.398Z,764.21
2023-05-01T03:10:26.398Z,758.89
2023-05-01T03:11:26.414Z,768.13
2023-05-01T03:12:26.381Z,761.82
2023-05-01T03:13:26.355Z,760.58
2023-05-01T03:14:26.388Z,758.15
2023-05-01T03:15:26.340Z,764.75
2023-05-01T03:16:26.376Z,771.67
2023-05-01T03:17:26.419Z,768.05
2023-05-01T03:18:26.321Z,765.16
2023-05-01T03:19:26.290Z,777.54
2023-05-01T03:20:27.572Z,779.01
2023-05-01T03:21:26.276Z,778.95
2023-05-01T03:22:26.254Z,785.86
2023-05-01T03:23:26.240Z,787.57
2023-05-01T03:24:26.243Z,791.93
2023-05-01T03:25:26.220Z,788.23
2023-05-01T03:26:26.221Z,787.57
2023-05-01T03:27:26.204Z,783.37
2023-05-01T03:28:26.183Z,775.89
2023-05-01T03:29:26.178Z,771.94
2023-05-01T03:30:26.202Z,776.29
2023-05-01T03:31:26.210Z,771.91
2023-05-01T03:32:26.243Z,771.59
2023-05-01T03:33:26.145Z,774.45
2023-05-01T03:34:26.115Z,773.27
2023-05-01T03:35:26.190Z,777.89
2023-05-01T03:36:26.093Z,782.88
2023-05-01T03:37:26.120Z,778.93
2023-05-01T03:38:26.095Z,776.56
2023-05-01T03:39:26.066Z,779.26
2023-05-01T03:40:26.065Z,784.68
2023-05-01T03:41:26.082Z,773.46
2023-05-01T03:42:26.043Z,776.90
2023-05-01T03:43:26.027Z,783.52
2023-05-01T03:44:26.015Z,779.09
2023-05-01T03:45:26.032Z,788.53
2023-05-01T03:46:26.066Z,785.46
2023-05-01T03:47:26.064Z,777.88
2023-05-01T03:48:25.994Z,773.96
2023-05-01T03:49:25.992Z,779.18
2023-05-01T03:50:25.950Z,774.47
2023-05-01T03:51:25.936Z,769.99
2023-05-01T03:52:25.919Z,770.56
2023-05-01T03:53:25.953Z,765.09
2023-05-01T03:54:25.935Z,765.19
2023-05-01T03:55:25.892Z,758.09
2023-05-01T03:56:25.901Z,759.38
2023-05-01T03:57:25.883Z,764.24
2023-05-01T03:58:25.853Z,762.25
2023-05-01T03:59:25.850Z,776.56
2023-05-01T04:00:25.875Z,775.47
2023-05-01T04:01:25.861Z,775.84
2023-05-01T04:02:25.936Z,771.00
2023-05-01T04:03:25.898Z,768.49
2023-05-01T04:04:25.893Z,770.66
2023-05-01T04:05:25.798Z,762.08
2023-05-01T04:06:25.800Z,766.02
2023-05-01T04:07:26.458Z,777.50
2023-05-01T04:08:25.743Z,771.53
2023-05-01T04:09:25.747Z,771.68
2023-05-01T04:10:25.719Z,766.27
2023-05-01T04:11:25.777Z,764.28
2023-05-01T04:12:25.700Z,769.54
2023-05-01T04:13:25.690Z,767.74
2023-05-01T04:14:25.682Z,769.82
2023-05-01T04:15:25.679Z,768.10
2023-05-01T04:16:25.740Z,768.78
2023-05-01T04:17:25.648Z,774.23
2023-05-01T04:18:25.651Z,767.23
2023-05-01T04:19:25.644Z,762.40
2023-05-01T04:20:25.620Z,762.41
2023-05-01T04:21:25.610Z,769.71
2023-05-01T04:22:25.589Z,765.88
2023-05-01T04:23:25.580Z,772.31
2023-05-01T04:24:25.580Z,776.04
2023-05-01T04:25:25.562Z,773.55
2023-05-01T04:26:25.560Z,771.95
2023-05-01T04:27:25.546Z,771.07
2023-05-01T04:28:25.535Z,778.60
2023-05-01T04:29:25.516Z,781.99
2023-05-01T04:30:25.536Z,774.29
2023-05-01T04:31:25.536Z,782.43
2023-05-01T04:32:25.559Z,777.13
2023-05-01T04:33:25.472Z,775.96
2023-05-01T04:34:25.484Z,775.78
2023-05-01T04:35:25.463Z,771.66
2023-05-01T04:36:25.431Z,765.96
2023-05-01T04:37:25.428Z,760.49
2023-05-01T04:38:25.421Z,751.50
2023-05-01T04:39:25.405Z,746.79
2023-05-01T04:40:25.390Z,758.66
2023-05-01T04:41:25.398Z,766.16
2023-05-01T04:42:25.380Z,756.51
2023-05-01T04:43:25.354Z,759.21
2023-05-01T04:44:32.846Z,734.70
2023-05-01T04:45:25.352Z,754.94
2023-05-01T04:46:25.377Z,769.62
2023-05-01T04:47:25.313Z,788.85
2023-05-01T04:48:25.295Z,799.75
2023-05-01T04:49:25.301Z,801.30
2023-05-01T04:50:25.308Z,802.32
2023-05-01T04:51:25.268Z,798.49
2023-05-01T04:52:25.254Z,790.35
2023-05-01T04:53:25.250Z,784.54
2023-05-01T04:54:25.244Z,796.84
2023-05-01T04:55:25.255Z,797.58
2023-05-01T04:56:25.212Z,796.90
2023-05-01T04:57:25.199Z,797.53
2023-05-01T04:58:25.185Z,795.36
2023-05-01T04:59:25.183Z,797.80
2023-05-01T05:00:25.184Z,790.84
2023-05-01T05:01:25.217Z,787.35
2023-05-01T05:02:25.172Z,788.06
2023-05-01T05:03:25.216Z,783.65
2023-05-01T05:04:25.137Z,774.98
2023-05-01T05:05:25.139Z,775.38
2023-05-01T05:06:25.175Z,774.56
2023-05-01T05:07:25.103Z,776.08
2023-05-01T05:08:25.077Z,779.87
2023-05-01T05:09:25.095Z,781.86
2023-05-01T05:10:25.080Z,776.25
2023-05-01T05:11:25.069Z,775.87
2023-05-01T05:12:25.049Z,773.09
2023-05-01T05:13:25.053Z,772.92
2023-05-01T05:14:25.023Z,774.01
2023-05-01T05:15:25.026Z,778.07
2023-05-01T05:16:25.040Z,777.37
2023-05-01T05:17:25.033Z,772.76
2023-05-01T05:18:25.018Z,778.34
2023-05-01T05:19:25.492Z,781.24
2023-05-01T05:20:25.017Z,789.32
2023-05-01T05:21:25.012Z,784.37
2023-05-01T05:22:25.007Z,779.67
2023-05-01T05:23:24.987Z,774.96
2023-05-01T05:24:24.990Z,778.31
2023-05-01T05:25:24.946Z,771.32
2023-05-01T05:26:24.915Z,774.42
2023-05-01T05:27:24.871Z,776.18
2023-05-01T05:28:24.867Z,785.58
2023-05-01T05:29:24.847Z,776.49
2023-05-01T05:30:24.831Z,772.21
2023-05-01T05:31:24.902Z,783.16
2023-05-01T05:32:24.887Z,778.92
2023-05-01T05:33:24.824Z,781.58
2023-05-01T05:34:24.793Z,773.52
2023-05-01T05:35:24.796Z,779.20
2023-05-01T05:36:25.026Z,766.14
2023-05-01T05:37:24.759Z,770.55
2023-05-01T05:38:24.788Z,778.06
2023-05-01T05:39:24.742Z,776.60
2023-05-01T05:40:24.721Z,773.92
2023-05-01T05:41:24.738Z,770.99
2023-05-01T05:42:24.734Z,780.46
2023-05-01T05:43:27.341Z,784.20
2023-05-01T05:44:24.675Z,769.16
2023-05-01T05:45:24.671Z,766.86
2023-05-01T05:46:24.737Z,772.18
2023-05-01T05:47:24.649Z,776.08
2023-05-01T05:48:24.695Z,773.81
2023-05-01T05:49:24.631Z,779.99
2023-05-01T05:50:24.613Z,778.59
2023-05-01T05:51:24.654Z,765.24
2023-05-01T05:52:24.602Z,769.45
2023-05-01T05:53:25.955Z,767.24
2023-05-01T05:54:24.592Z,754.77
2023-05-01T05:55:24.604Z,763.96
2023-05-01T05:56:24.587Z,762.26
2023-05-01T05:57:24.539Z,759.68
2023-05-01T05:58:24.536Z,771.86
2023-05-01T05:59:24.519Z,775.03
2023-05-01T06:00:24.533Z,775.57
2023-05-01T06:01:24.502Z,772.50
2023-05-01T06:02:24.545Z,771.30
2023-05-01T06:03:24.653Z,778.43
2023-05-01T06:04:24.467Z,769.80
2023-05-01T06:05:24.496Z,766.44
2023-05-01T06:06:24.483Z,751.59
2023-05-01T06:07:24.432Z,753.43
2023-05-01T06:08:24.416Z,760.24
2023-05-01T06:09:24.413Z,759.66
2023-05-01T06:10:24.428Z,755.29
2023-05-01T06:11:24.409Z,747.13
2023-05-01T06:12:24.389Z,752.65
2023-05-01T06:13:24.368Z,752.04
2023-05-01T06:14:24.371Z,750.81
2023-05-01T06:15:24.356Z,748.63
2023-05-01T06:16:24.361Z,742.54
2023-05-01T06:17:24.331Z,757.72
2023-05-01T06:18:24.308Z,756.26
2023-05-01T06:19:24.302Z,759.62
2023-05-01T06:20:24.301Z,769.26
2023-05-01T06:21:24.296Z,764.11
2023-05-01T06:22:24.286Z,764.58
2023-05-01T06:23:24.274Z,755.01
2023-05-01T06:24:24.240Z,764.52
2023-05-01T06:25:24.235Z,769.76
2023-05-01T06:26:24.259Z,766.55
2023-05-01T06:27:24.228Z,746.29
2023-05-01T06:28:24.203Z,762.96
2023-05-01T06:29:24.190Z,760.26
2023-05-01T06:30:24.180Z,756.99
2023-05-01T06:31:24.232Z,753.70
2023-05-01T06:32:24.187Z,743.05
2023-05-01T06:33:24.145Z,755.25
2023-05-01T06:34:24.129Z,757.56
2023-05-01T06:35:24.132Z,755.92
2023-05-01T06:36:24.119Z,751.51
2023-05-01T06:37:24.101Z,752.01
2023-05-01T06:38:26.855Z,748.64
2023-05-01T06:39:24.081Z,744.76
2023-05-01T06:40:24.065Z,751.25
2023-05-01T06:41:24.054Z,759.25
2023-05-01T06:42:24.174Z,752.51
2023-05-01T06:43:24.071Z,738.61
2023-05-01T06:44:24.020Z,743.03
2023-05-01T06:45:31.538Z,726.47
2023-05-01T06:46:24.015Z,725.95
2023-05-01T06:47:24.028Z,733.09
2023-05-01T06:48:23.973Z,737.67
2023-05-01T06:49:23.962Z,751.84
2023-05-01T06:50:23.963Z,765.88
2023-05-01T06:51:23.939Z,772.57
2023-05-01T06:52:23.932Z,769.18
2023-05-01T06:53:23.924Z,773.45
2023-05-01T06:54:23.916Z,769.17
2023-05-01T06:55:23.901Z,763.56
2023-05-01T06:56:23.881Z,756.73
2023-05-01T06:57:23.886Z,759.58
2023-05-01T06:58:24.709Z,749.37
2023-05-01T06:59:23.876Z,741.47
2023-05-01T07:00:23.849Z,733.14
2023-05-01T07:01:23.868Z,729.33
2023-05-01T07:02:23.891Z,733.88
2023-05-01T07:03:23.847Z,727.74
2023-05-01T07:04:23.798Z,727.39
2023-05-01T07:05:24.058Z,735.63
2023-05-01T07:06:23.836Z,742.80
2023-05-01T07:07:23.763Z,748.08
2023-05-01T07:08:23.748Z,753.63
2023-05-01T07:09:23.740Z,751.02
2023-05-01T07:10:23.737Z,743.82
2023-05-01T07:11:23.719Z,744.02
2023-05-01T07:12:23.706Z,742.48
2023-05-01T07:13:23.695Z,744.44
2023-05-01T07:14:23.716Z,737.17
2023-05-01T07:15:23.688Z,730.76
2023-05-01T07:16:23.701Z,734.20
2023-05-01T07:17:23.670Z,724.16
2023-05-01T07:18:23.637Z,722.10
2023-05-01T07:19:23.643Z,715.02
2023-05-01T07:20:23.626Z,717.43
2023-05-01T07:21:23.622Z,714.43
2023-05-01T07:22:23.597Z,715.13
2023-05-01T07:23:23.608Z,713.69
2023-05-01T07:24:23.570Z,707.41
2023-05-01T07:25:23.563Z,702.30
2023-05-01T07:26:23.560Z,703.15
2023-05-01T07:27:23.543Z,700.93
2023-05-01T07:28:23.540Z,707.30
2023-05-01T07:29:23.532Z,727.74
2023-05-01T07:30:23.525Z,736.83
2023-05-01T07:31:23.559Z,744.99
2023-05-01T07:32:23.487Z,733.03
2023-05-01T07:33:23.541Z,722.97
2023-05-01T07:34:23.480Z,716.07
2023-05-01T07:35:23.480Z,713.84
2023-05-01T07:36:23.448Z,716.40
2023-05-01T07:37:23.444Z,723.18
2023-05-01T07:38:23.427Z,715.92
2023-05-01T07:39:23.402Z,714.48
2023-05-01T07:40:23.410Z,709.51
2023-05-01T07:41:23.390Z,707.96
2023-05-01T07:42:23.374Z,710.46
2023-05-01T07:43:23.362Z,714.93
2023-05-01T07:44:23.371Z,708.71
2023-05-01T07:45:23.347Z,703.64
2023-05-01T07:46:23.406Z,706.76
2023-05-01T07:47:23.364Z,710.22
2023-05-01T07:48:23.327Z,705.73
2023-05-01T07:49:23.296Z,706.23
2023-05-01T07:50:23.301Z,713.54
2023-05-01T07:51:23.273Z,709.48
2023-05-01T07:52:23.263Z,711.04
2023-05-01T07:53:23.269Z,720.66
2023-05-01T07:54:23.244Z,726.85
2023-05-01T07:55:23.241Z,717.09
2023-05-01T07:56:23.218Z,706.69
2023-05-01T07:57:23.215Z,708.25
2023-05-01T07:58:23.206Z,703.83
2023-05-01T07:59:23.183Z,696.90
2023-05-01T08:00:23.190Z,693.99
2023-05-01T08:01:23.183Z,689.65
2023-05-01T08:02:23.267Z,689.11
2023-05-01T08:03:23.410Z,702.06
2023-05-01T08:04:23.443Z,700.17
2023-05-01T08:05:23.121Z,701.88
2023-05-01T08:06:23.146Z,710.00
2023-05-01T08:07:23.096Z,711.45
2023-05-01T08:08:23.081Z,705.37
2023-05-01T08:09:23.078Z,697.22
2023-05-01T08:10:23.085Z,694.40
2023-05-01T08:11:23.055Z,687.20
2023-05-01T08:12:23.038Z,686.15
2023-05-01T08:13:23.044Z,680.53
2023-05-01T08:14:23.056Z,677.26
2023-05-01T08:15:23.053Z,680.50
2023-05-01T08:16:23.016Z,683.49
2023-05-01T08:17:23.030Z,683.14
2023-05-01T08:18:23.026Z,684.09
2023-05-01T08:19:22.962Z,681.19
2023-05-01T08:20:22.987Z,679.59
2023-05-01T08:21:22.963Z,678.67
2023-05-01T08:22:22.929Z,673.08
2023-05-01T08:23:22.927Z,674.68
2023-05-01T08:24:23.263Z,677.19
2023-05-01T08:25:22.906Z,681.03
2023-05-01T08:26:22.954Z,699.92
2023-05-01T08:27:22.875Z,705.04
2023-05-01T08:28:22.905Z,704.00
2023-05-01T08:29:22.862Z,694.31
2023-05-01T08:30:22.872Z,698.29
2023-05-01T08:31:22.900Z,688.51
2023-05-01T08:32:22.850Z,687.13
2023-05-01T08:33:22.806Z,685.09
2023-05-01T08:34:23.098Z,686.18
2023-05-01T08:35:22.787Z,692.97
2023-05-01T08:36:22.781Z,689.22
2023-05-01T08:37:22.784Z,684.33
2023-05-01T08:38:22.772Z,684.21
2023-05-01T08:39:22.762Z,684.54
2023-05-01T08:40:22.767Z,683.41
2023-05-01T08:41:22.742Z,683.85
2023-05-01T08:42:22.712Z,682.53
2023-05-01T08:43:22.742Z,685.00
2023-05-01T08:44:22.698Z,692.98
2023-05-01T08:45:22.688Z,697.17
2023-05-01T08:46:30.208Z,683.50
2023-05-01T08:47:22.674Z,689.45
2023-05-01T08:48:22.657Z,698.12
2023-05-01T08:49:22.632Z,702.15
2023-05-01T08:50:22.869Z,712.35
2023-05-01T08:51:22.605Z,720.31
2023-05-01T08:52:22.622Z,722.34
2023-05-01T08:53:22.612Z,716.11
2023-05-01T08:54:22.594Z,714.25
2023-05-01T08:55:22.561Z,706.90
2023-05-01T08:56:22.565Z,704.32
2023-05-01T08:57:22.552Z,717.00
2023-05-01T08:58:22.530Z,715.17
2023-05-01T08:59:22.520Z,715.96
2023-05-01T09:00:22.584Z,711.00
2023-05-01T09:01:22.538Z,704.30
2023-05-01T09:02:22.545Z,695.29
2023-05-01T09:03:22.546Z,689.88
2023-05-01T09:04:22.481Z,684.62
2023-05-01T09:05:22.488Z,686.45
2023-05-01T09:06:22.503Z,692.55
2023-05-01T09:07:22.427Z,689.49
2023-05-01T09:08:22.432Z,697.82
2023-05-01T09:09:22.409Z,706.11
2023-05-01T09:10:22.391Z,702.69
2023-05-01T09:11:22.386Z,694.73
2023-05-01T09:12:22.373Z,701.59
2023-05-01T09:13:22.372Z,695.65
2023-05-01T09:14:22.375Z,701.03
2023-05-01T09:15:22.340Z,704.91
2023-05-01T09:16:22.369Z,704.55
2023-05-01T09:17:22.408Z,706.61
2023-05-01T09:18:22.300Z,704.84
2023-05-01T09:19:22.282Z,698.58
2023-05-01T09:20:22.287Z,695.46
2023-05-01T09:21:22.266Z,686.62
2023-05-01T09:22:22.287Z,685.71
2023-05-01T09:23:22.255Z,686.86
2023-05-01T09:24:22.237Z,687.73
2023-05-01T09:25:22.218Z,689.42
2023-05-01T09:26:22.241Z,686.16
2023-05-01T09:27:22.202Z,685.53
2023-05-01T09:28:22.192Z,685.50
2023-05-01T09:29:22.190Z,680.88
2023-05-01T09:30:22.179Z,677.44
2023-05-01T09:31:22.172Z,673.74
2023-05-01T09:32:22.277Z,671.58
2023-05-01T09:33:22.186Z,670.92
2023-05-01T09:34:22.146Z,672.59
2023-05-01T09:35:22.112Z,672.50
2023-05-01T09:36:22.101Z,672.27
2023-05-01T09:37:22.099Z,675.08
2023-05-01T09:38:22.153Z,677.45
2023-05-01T09:39:22.087Z,674.05
2023-05-01T09:40:22.059Z,673.99
2023-05-01T09:41:22.065Z,671.38
2023-05-01T09:42:22.039Z,669.02
2023-05-01T09:43:22.023Z,667.87
2023-05-01T09:44:22.012Z,671.61
2023-05-01T09:45:21.999Z,672.13
2023-05-01T09:46:22.046Z,669.83
2023-05-01T09:47:22.019Z,669.52
2023-05-01T09:48:21.987Z,668.72
2023-05-01T09:49:21.954Z,666.46
2023-05-01T09:50:21.946Z,665.67
2023-05-01T09:51:21.975Z,665.16
2023-05-01T09:52:21.940Z,666.01
2023-05-01T09:53:21.928Z,666.18
2023-05-01T09:54:21.938Z,671.13
2023-05-01T09:55:23.115Z,675.70
2023-05-01T09:56:21.883Z,676.08
2023-05-01T09:57:21.869Z,679.57
2023-05-01T09:58:21.861Z,684.97
2023-05-01T09:59:21.867Z,678.96
2023-05-01T10:00:22.072Z,679.62
2023-05-01T10:01:21.851Z,680.37
2023-05-01T10:02:21.934Z,679.90
2023-05-01T10:03:22.694Z,674.24
2023-05-01T10:04:21.810Z,669.72
2023-05-01T10:05:21.793Z,669.73
2023-05-01T10:06:21.798Z,669.61
2023-05-01T10:07:21.776Z,668.60
2023-05-01T10:08:21.757Z,666.32
2023-05-01T10:09:21.740Z,668.53
2023-05-01T10:10:21.807Z,674.97
2023-05-01T10:11:21.727Z,678.80
2023-05-01T10:12:21.711Z,683.33
2023-05-01T10:13:21.708Z,682.88
2023-05-01T10:14:21.689Z,679.56
2023-05-01T10:15:26.069Z,676.79
2023-05-01T10:16:21.701Z,680.03
2023-05-01T10:17:21.755Z,675.90
2023-05-01T10:18:21.840Z,674.31
2023-05-01T10:19:21.649Z,681.61
2023-05-01T10:20:21.644Z,682.71
2023-05-01T10:21:21.610Z,678.29
2023-05-01T10:22:21.659Z,680.47
2023-05-01T10:23:21.597Z,676.75
2023-05-01T10:24:21.603Z,672.54
2023-05-01T10:25:21.566Z,669.90
2023-05-01T10:26:21.575Z,667.07
2023-05-01T10:27:21.562Z,670.39
2023-05-01T10:28:21.531Z,679.16
2023-05-01T10:29:21.578Z,687.34
2023-05-01T10:30:21.520Z,695.68
2023-05-01T10:31:21.533Z,694.63
2023-05-01T10:32:21.491Z,691.29
2023-05-01T10:33:21.518Z,687.60
2023-05-01T10:34:21.472Z,691.38
2023-05-01T10:35:21.460Z,687.29
2023-05-01T10:36:21.461Z,681.20
2023-05-01T10:37:21.433Z,685.30
2023-05-01T10:38:21.431Z,682.77
2023-05-01T10:39:21.407Z,683.19
2023-05-01T10:40:21.407Z,681.56
2023-05-01T10:41:21.399Z,683.16
2023-05-01T10:42:21.412Z,684.43
2023-05-01T10:43:21.409Z,681.79
2023-05-01T10:44:21.384Z,677.35
2023-05-01T10:45:21.350Z,678.97
2023-05-01T10:46:21.506Z,679.81
2023-05-01T10:47:28.981Z,662.22
2023-05-01T10:48:21.311Z,661.08
2023-05-01T10:49:21.296Z,665.41
2023-05-01T10:50:21.291Z,672.00
2023-05-01T10:51:21.287Z,679.43
2023-05-01T10:52:21.286Z,687.68
2023-05-01T10:53:21.273Z,693.84
2023-05-01T10:54:21.249Z,694.40
2023-05-01T10:55:21.231Z,694.45
2023-05-01T10:56:21.242Z,697.65
2023-05-01T10:57:21.220Z,700.35
2023-05-01T10:58:21.220Z,700.45
2023-05-01T10:59:21.198Z,701.19
2023-05-01T11:00:21.180Z,698.75
2023-05-01T11:01:21.207Z,699.85
2023-05-01T11:02:21.529Z,703.29
2023-05-01T11:03:21.155Z,695.74
2023-05-01T11:04:21.139Z,695.29
2023-05-01T11:05:32.163Z,688.22
2023-05-01T11:06:21.224Z,689.07
2023-05-01T11:07:21.131Z,695.75
2023-05-01T11:08:21.098Z,689.49
2023-05-01T11:09:21.081Z,681.86
2023-05-01T11:10:21.081Z,679.01
2023-05-01T11:11:21.058Z,674.01
2023-05-01T11:12:21.065Z,673.81
2023-05-01T11:13:21.037Z,671.18
2023-05-01T11:14:21.049Z,687.35
2023-05-01T11:15:21.020Z,692.47
2023-05-01T11:16:21.041Z,687.00
2023-05-01T11:17:20.995Z,689.74
2023-05-01T11:18:21.015Z,695.96
2023-05-01T11:19:20.987Z,697.03
2023-05-01T11:20:20.981Z,692.02
2023-05-01T11:21:20.952Z,692.72
2023-05-01T11:22:20.956Z,692.23
2023-05-01T11:23:20.943Z,685.73
2023-05-01T11:24:20.919Z,681.78
2023-05-01T11:25:20.914Z,675.49
2023-05-01T11:26:20.898Z,675.83
2023-05-01T11:27:20.901Z,675.32
2023-05-01T11:28:20.884Z,674.92
2023-05-01T11:29:20.866Z,680.06
2023-05-01T11:30:20.877Z,689.29
2023-05-01T11:31:20.902Z,685.34
2023-05-01T11:32:21.293Z,687.18
2023-05-01T11:33:20.865Z,684.52
2023-05-01T11:34:20.844Z,681.74
2023-05-01T11:35:20.820Z,678.02
2023-05-01T11:36:20.800Z,673.81
2023-05-01T11:37:20.772Z,670.39
2023-05-01T11:38:20.769Z,677.10
2023-05-01T11:39:20.749Z,685.81
2023-05-01T11:40:20.770Z,688.84
2023-05-01T11:41:20.732Z,690.03
2023-05-01T11:42:20.774Z,699.04
2023-05-01T11:43:20.709Z,700.67
2023-05-01T11:44:20.712Z,699.12
2023-05-01T11:45:20.751Z,695.94
2023-05-01T11:46:20.699Z,699.99
2023-05-01T11:47:20.713Z,693.35
2023-05-01T11:48:20.665Z,690.04
2023-05-01T11:49:20.655Z,698.65
2023-05-01T11:50:20.630Z,694.17
2023-05-01T11:51:20.620Z,688.26
2023-05-01T11:52:20.622Z,683.61
2023-05-01T11:53:20.608Z,685.05
2023-05-01T11:54:20.587Z,682.14
2023-05-01T11:55:20.588Z,676.58
2023-05-01T11:56:26.641Z,673.43
2023-05-01T11:57:21.556Z,669.35
2023-05-01T11:58:20.550Z,671.48
2023-05-01T11:59:20.547Z,673.33
2023-05-01T12:00:20.525Z,680.94
2023-05-01T12:01:20.510Z,684.53
2023-05-01T12:02:20.586Z,689.21
2023-05-01T12:03:20.801Z,688.00
2023-05-01T12:04:20.560Z,680.86
2023-05-01T12:05:20.475Z,674.53
2023-05-01T12:06:20.461Z,672.08
2023-05-01T12:07:20.452Z,671.15
2023-05-01T12:08:20.431Z,680.14
2023-05-01T12:09:20.437Z,685.34
2023-05-01T12:10:20.404Z,689.34
2023-05-01T12:11:20.398Z,691.23
2023-05-01T12:12:20.401Z,693.75
2023-05-01T12:13:20.380Z,689.01
2023-05-01T12:14:20.361Z,687.42
2023-05-01T12:15:20.366Z,688.41
2023-05-01T12:16:20.384Z,682.23
2023-05-01T12:17:20.369Z,688.84
2023-05-01T12:18:20.397Z,692.38
2023-05-01T12:19:21.732Z,689.06
2023-05-01T12:20:20.302Z,690.90
2023-05-01T12:21:20.299Z,686.40
2023-05-01T12:22:20.279Z,684.29
2023-05-01T12:23:20.264Z,685.05
2023-05-01T12:24:20.250Z,685.14
2023-05-01T12:25:20.242Z,679.36
2023-05-01T12:26:20.242Z,673.10
2023-05-01T12:27:20.221Z,675.67
2023-05-01T12:28:20.372Z,675.04